Maria Schulte — C4NZ2 — position and weather

sailwx.info

Track history (hours):
 
Tides and Currents Weather Stations Pressure Air Temp Water Temp Dewpoint Dewpoint Depression Visibility Wind Speed Wind Dir Waves Ship Positions

Maria Schulte

Last reported at 2018-May-03 02:29 UTC. Time now 2018-May-22 21:16 UTC.
Position N 23°21' E 117°32'.
Warning: this ship's position is 19 days out of date.

Length 231 m; draft 11.9 m.

Type: Ship (hazmat cat A). MMSI: 210346000.

Date/timePositionNaut miles runAvg speedWind from/ knotsBaromVisibWave heightAir tempDewpointWater temp
2018-May-03 02:29N 23°21' E 117°32'715.3
2018-May-03 02:00N 23°26' E 117°38'815.4
2018-May-03 01:29N 23°32' E 117°45'714.8
2018-May-03 01:00N 23°36' E 117°51'1215.7
2018-May-03 00:13N 23°45' E 118°00'1016.2
2018-May-02 23:37N 23°52' E 118°08'916.5
2018-May-02 23:05N 23°58' E 118°15'216.6
2018-May-02 22:57N 23°59' E 118°17'716.6
2018-May-02 22:30N 24°04' E 118°23'916.7
2018-May-02 21:59N 24°10' E 118°30'816.7
2018-May-02 21:29N 24°16' E 118°37'817.0
2018-May-02 21:00N 24°21' E 118°43'  
2018-Apr-30 06:49N 35°59' E 120°30'612.2
2018-Apr-30 06:22N 36°01' E 120°24'8 7.4
2018-Apr-30 05:17N 36°01' E 120°14'1 1.7
2018-Apr-30 04:49N 36°01' E 120°13'0 0.0
2018-Apr-30 04:29N 36°01' E 120°13'0 0.0
2018-Apr-30 03:59N 36°01' E 120°13'0 0.0
2018-Apr-30 02:26N 36°01' E 120°13'0 0.0
2018-Apr-30 00:34N 36°01' E 120°13'0 0.0
2018-Apr-30 00:19N 36°01' E 120°13'0 0.0
2018-Apr-29 23:59N 36°01' E 120°13'0 0.0
2018-Apr-29 23:27N 36°01' E 120°13'0 0.0
2018-Apr-29 22:30N 36°01' E 120°13'0 0.0
2018-Apr-29 21:57N 36°01' E 120°13'0 0.0
2018-Apr-29 21:25N 36°01' E 120°13'0 0.0
2018-Apr-29 20:50N 36°01' E 120°13'0 0.0
2018-Apr-29 20:20N 36°01' E 120°13'  
2018-Apr-26 00:58N 38°32' E 121°19'716.0
2018-Apr-26 00:30N 38°32' E 121°28'917.2
2018-Apr-26 00:00N 38°32' E 121°39'815.4
2018-Apr-25 23:30N 38°37' E 121°46'917.3
2018-Apr-25 23:00N 38°45' E 121°51'1017.1
2018-Apr-25 22:27N 38°53' E 121°56'3 0.2
2018-Apr-25 03:44N 38°52' E 122°00'2 9.0
2018-Apr-25 03:30N 38°50' E 122°00'1011.8
2018-Apr-25 02:40N 38°40' E 122°03'212.5
2018-Apr-25 02:30N 38°38' E 122°04'612.5
2018-Apr-25 02:00N 38°32' E 122°06'  
Track history (hours):
 
Tides and Currents Weather Stations Pressure Air Temp Water Temp Dewpoint Dewpoint Depression Visibility Wind Speed Wind Dir Waves Ship Positions

Maria Schulte

Last reported at 2018-May-03 02:29 UTC. Time now 2018-May-22 21:16 UTC.
Position N 23°21' E 117°32'.
Warning: this ship's position is 19 days out of date.

Length 231 m; draft 11.9 m.

Type: Ship (hazmat cat A). MMSI: 210346000.

Date/timePositionNaut miles runAvg speedWind from/ knotsBaromVisibWave heightAir tempDewpointWater temp
2018-May-03 02:29N 23°21' E 117°32'715.3
2018-May-03 02:00N 23°26' E 117°38'815.4
2018-May-03 01:29N 23°32' E 117°45'714.8
2018-May-03 01:00N 23°36' E 117°51'1215.7
2018-May-03 00:13N 23°45' E 118°00'1016.2
2018-May-02 23:37N 23°52' E 118°08'916.5
2018-May-02 23:05N 23°58' E 118°15'216.6
2018-May-02 22:57N 23°59' E 118°17'716.6
2018-May-02 22:30N 24°04' E 118°23'916.7
2018-May-02 21:59N 24°10' E 118°30'816.7
2018-May-02 21:29N 24°16' E 118°37'817.0
2018-May-02 21:00N 24°21' E 118°43'  
2018-Apr-30 06:49N 35°59' E 120°30'612.2
2018-Apr-30 06:22N 36°01' E 120°24'8 7.4
2018-Apr-30 05:17N 36°01' E 120°14'1 1.7
2018-Apr-30 04:49N 36°01' E 120°13'0 0.0
2018-Apr-30 04:29N 36°01' E 120°13'0 0.0
2018-Apr-30 03:59N 36°01' E 120°13'0 0.0
2018-Apr-30 02:26N 36°01' E 120°13'0 0.0
2018-Apr-30 00:34N 36°01' E 120°13'0 0.0
2018-Apr-30 00:19N 36°01' E 120°13'0 0.0
2018-Apr-29 23:59N 36°01' E 120°13'0 0.0
2018-Apr-29 23:27N 36°01' E 120°13'0 0.0
2018-Apr-29 22:30N 36°01' E 120°13'0 0.0
2018-Apr-29 21:57N 36°01' E 120°13'0 0.0
2018-Apr-29 21:25N 36°01' E 120°13'0 0.0
2018-Apr-29 20:50N 36°01' E 120°13'0 0.0
2018-Apr-29 20:20N 36°01' E 120°13'  
2018-Apr-26 00:58N 38°32' E 121°19'716.0
2018-Apr-26 00:30N 38°32' E 121°28'917.2
2018-Apr-26 00:00N 38°32' E 121°39'815.4
2018-Apr-25 23:30N 38°37' E 121°46'917.3
2018-Apr-25 23:00N 38°45' E 121°51'1017.1
2018-Apr-25 22:27N 38°53' E 121°56'3 0.2
2018-Apr-25 03:44N 38°52' E 122°00'2 9.0
2018-Apr-25 03:30N 38°50' E 122°00'1011.8
2018-Apr-25 02:40N 38°40' E 122°03'212.5
2018-Apr-25 02:30N 38°38' E 122°04'612.5
2018-Apr-25 02:00N 38°32' E 122°06'  

Dump ship's entire track history